Time;durP1;ratioP1;P1;durP2;ratioP2;P2;SDS_P1;SDS_P2;PMS_P1;PMS_P2;Temp;Humidity;BMP_temperature;BMP_pressure;BME280_temperature;BME280_humidity;BME280_pressure;Samples;Min_cycle;Max_cycle;Signal;HPM_P1;HPM_P2
2022/02/08 00:01:01;;;;;;;;;;;17.70;99.90;;;;;;5074255;28;20278;-71
2022/02/08 00:03:28;;;;;;;;;;;17.70;99.90;;;;;;5074181;28;20244;-71
2022/02/08 00:08:39;;;;;;;;;;;17.80;99.90;;;;;;5074400;28;19997;-71
2022/02/08 00:11:06;;;;;;;;;;;17.90;99.90;;;;;;5073897;28;19909;-71
2022/02/08 00:13:32;;;;;;;;;;;18.00;99.90;;;;;;5073996;28;19914;-72
2022/02/08 00:15:59;;;;;;;;;;;18.10;99.90;;;;;;5073757;28;19915;-72
2022/02/08 00:18:26;;;;;;;;;;;18.20;99.90;;;;;;5073480;28;19909;-72
2022/02/08 00:20:52;;;;;;;;;;;18.30;99.90;;;;;;5074013;28;20348;-72
2022/02/08 00:23:19;;;;;;;;;;;18.10;99.90;;;;;;5074131;28;20363;-72
2022/02/08 00:25:46;;;;;;;;;;;18.20;99.90;;;;;;5073870;28;19912;-72
2022/02/08 00:28:13;;;;;;;;;;;18.30;99.90;;;;;;5073931;28;19923;-72
2022/02/08 00:30:39;;;;;;;;;;;18.50;99.90;;;;;;5073996;28;19944;-72
2022/02/08 00:33:06;;;;;;;;;;;18.60;99.90;;;;;;5073939;28;19908;-72
2022/02/08 00:35:33;;;;;;;;;;;18.60;99.90;;;;;;5073624;28;20328;-72
2022/02/08 00:37:59;;;;;;;;;;;18.60;99.90;;;;;;5073223;28;19912;-72
2022/02/08 00:40:27;;;;;;;;;;;18.60;99.90;;;;;;5073398;28;19908;-72
2022/02/08 00:42:54;;;;;;;;;;;18.70;99.90;;;;;;5073703;28;19908;-72
2022/02/08 00:45:52;;;;;;;;;;;18.80;99.90;;;;;;5073700;28;20008;-72
2022/02/08 00:48:31;;;;;;;;;;;18.90;99.90;;;;;;5073304;28;19966;-71
2022/02/08 00:50:57;;;;;;;;;;;18.80;99.90;;;;;;5073162;28;20370;-72
2022/02/08 00:53:24;;;;;;;;;;;18.80;99.90;;;;;;5073648;28;20391;-72
2022/02/08 00:55:51;;;;;;;;;;;18.80;99.90;;;;;;5073252;28;20003;-71
2022/02/08 00:58:17;;;;;;;;;;;18.90;99.90;;;;;;5073380;28;19909;-72
2022/02/08 01:00:44;;;;;;;;;;;18.90;99.90;;;;;;5073150;28;19927;-72
2022/02/08 01:03:11;;;;;;;;;;;19.00;99.90;;;;;;5073279;28;19909;-71
2022/02/08 01:05:44;;;;;;;;;;;18.90;99.90;;;;;;5073080;28;19958;-72
2022/02/08 01:08:11;;;;;;;;;;;18.80;99.90;;;;;;5073261;28;20317;-72
2022/02/08 01:10:39;;;;;;;;;;;18.80;99.90;;;;;;5072897;28;19912;-72
2022/02/08 01:13:06;;;;;;;;;;;18.80;99.90;;;;;;5073155;28;19999;-71
2022/02/08 01:15:33;;;;;;;;;;;18.80;99.90;;;;;;5073159;28;19909;-72
2022/02/08 01:18:00;;;;;;;;;;;18.70;99.90;;;;;;5073210;28;19915;-72
2022/02/08 01:20:36;;;;;;;;;;;18.80;99.90;;;;;;5072927;28;20262;-72
2022/02/08 01:23:12;;;;;;;;;;;18.90;99.90;;;;;;5103766;28;20262;-72
2022/02/08 01:25:52;;;;;;;;;;;19.00;99.90;;;;;;5113372;28;22184;-72
2022/02/08 01:31:20;;;;;;;;;;;19.20;99.90;;;;;;5089915;28;19915;-72
2022/02/08 01:36:33;;;;;;;;;;;19.20;99.90;;;;;;5113326;28;19910;-72
2022/02/08 01:47:21;;;;;;;;;;;19.40;99.90;;;;;;5113230;28;19923;-72
2022/02/08 01:50:00;;;;;;;;;;;19.40;99.90;;;;;;5112725;28;20399;-72
2022/02/08 01:52:27;;;;;;;;;;;19.50;99.90;;;;;;5113190;28;19907;-72
2022/02/08 01:54:55;;;;;;;;;;;19.50;99.90;;;;;;5113152;28;19908;-72
2022/02/08 01:57:21;;;;;;;;;;;19.60;99.90;;;;;;5113180;28;19921;-72
2022/02/08 01:59:48;;;;;;;;;;;19.90;99.90;;;;;;5112792;28;19920;-72
2022/02/08 02:02:15;;;;;;;;;;;20.00;99.90;;;;;;5113104;28;20016;-72
2022/02/08 02:04:42;;;;;;;;;;;20.20;99.90;;;;;;5112980;28;19915;-72
2022/02/08 02:07:08;;;;;;;;;;;20.50;99.90;;;;;;5112891;28;19968;-72
2022/02/08 02:09:36;;;;;;;;;;;20.50;99.90;;;;;;5112746;28;19912;-72
2022/02/08 02:12:02;;;;;;;;;;;20.50;99.90;;;;;;5111497;28;19912;-72
2022/02/08 02:14:34;;;;;;;;;;;20.60;99.90;;;;;;5112873;28;20042;-72
2022/02/08 02:17:01;;;;;;;;;;;20.60;99.90;;;;;;5113030;28;20243;-71
2022/02/08 02:19:29;;;;;;;;;;;20.70;99.90;;;;;;5112988;28;19908;-71
2022/02/08 02:21:57;;;;;;;;;;;20.70;99.90;;;;;;5112530;28;20037;-72
2022/02/08 02:24:23;;;;;;;;;;;20.70;99.90;;;;;;5112844;28;19912;-71
2022/02/08 02:26:50;;;;;;;;;;;20.70;99.90;;;;;;5112820;28;19915;-72
2022/02/08 02:29:20;;;;;;;;;;;21.10;99.90;;;;;;5112751;28;20418;-72
2022/02/08 02:31:47;;;;;;;;;;;21.10;99.90;;;;;;5112593;28;19915;-72
2022/02/08 02:34:18;;;;;;;;;;;21.30;99.90;;;;;;5113001;28;19908;-72
2022/02/08 02:36:46;;;;;;;;;;;21.30;99.90;;;;;;5112678;28;19951;-72
2022/02/08 02:39:13;;;;;;;;;;;21.30;99.90;;;;;;5112914;28;20313;-72
2022/02/08 02:41:41;;;;;;;;;;;21.30;99.90;;;;;;5115877;28;19908;-72
2022/02/08 02:44:10;;;;;;;;;;;21.20;99.90;;;;;;5116587;28;19911;-72
2022/02/08 02:46:37;;;;;;;;;;;21.10;99.90;;;;;;5116665;28;19930;-73
2022/02/08 02:49:04;;;;;;;;;;;21.10;99.90;;;;;;5116842;28;19908;-73
2022/02/08 02:51:31;;;;;;;;;;;21.00;99.90;;;;;;5116438;28;20306;-72
2022/02/08 02:53:58;;;;;;;;;;;20.90;99.90;;;;;;5116566;28;20339;-72
2022/02/08 02:56:25;;;;;;;;;;;21.00;99.90;;;;;;5116538;28;19908;-72
2022/02/08 02:58:59;;;;;;;;;;;21.00;99.90;;;;;;5116332;28;19939;-72
2022/02/08 03:20:00;;;;;;;;;;;21.70;99.90;;;;;;5115793;28;19974;-72
2022/02/08 03:22:26;;;;;;;;;;;21.70;99.90;;;;;;5116046;28;20002;-72
2022/02/08 03:24:53;;;;;;;;;;;21.70;99.90;;;;;;5116204;28;20354;-72
2022/02/08 03:27:20;;;;;;;;;;;21.70;99.90;;;;;;5116018;28;20269;-71
2022/02/08 03:29:47;;;;;;;;;;;22.00;99.90;;;;;;5115685;28;19946;-72
2022/02/08 03:32:15;;;;;;;;;;;22.10;99.90;;;;;;5115893;27;19915;-72
2022/02/08 03:34:41;;;;;;;;;;;22.10;99.90;;;;;;5115791;28;19947;-72
2022/02/08 03:37:08;;;;;;;;;;;22.20;99.90;;;;;;5115750;28;19908;-72
2022/02/08 03:39:41;;;;;;;;;;;22.30;99.90;;;;;;5115767;28;19908;-72
2022/02/08 03:42:16;;;;;;;;;;;22.40;99.90;;;;;;5115358;28;19908;-71
2022/02/08 03:44:46;;;;;;;;;;;22.50;99.90;;;;;;5115436;28;19956;-72
2022/02/08 03:47:14;;;;;;;;;;;22.50;99.90;;;;;;5115507;28;19965;-72
2022/02/08 03:49:41;;;;;;;;;;;22.40;99.90;;;;;;5115409;28;19959;-72
2022/02/08 03:52:08;;;;;;;;;;;22.30;99.90;;;;;;5114058;28;19908;-71
2022/02/08 03:54:35;;;;;;;;;;;22.30;99.90;;;;;;5115333;28;20378;-72
2022/02/08 03:57:04;;;;;;;;;;;22.40;99.90;;;;;;5115379;28;19908;-71
2022/02/08 03:59:31;;;;;;;;;;;22.40;99.90;;;;;;5114827;28;19920;-71
2022/02/08 04:07:22;;;;;;;;;;;22.50;99.90;;;;;;5092582;28;19923;-71
2022/02/08 04:09:51;;;;;;;;;;;22.60;99.90;;;;;;5112868;28;20370;-72
2022/02/08 04:12:36;;;;;;;;;;;22.60;99.90;;;;;;5114206;28;19908;-73
2022/02/08 04:31:35;;;;;;;;;;;22.90;99.90;;;;;;5115042;28;20290;-72
2022/02/08 04:34:23;;;;;;;;;;;22.90;99.90;;;;;;5114670;28;20270;-73
2022/02/08 04:42:21;;;;;;;;;;;22.50;99.90;;;;;;5114320;28;19915;-72
2022/02/08 04:45:00;;;;;;;;;;;22.40;99.90;;;;;;5114127;28;20425;-71
2022/02/08 04:47:34;;;;;;;;;;;22.40;99.90;;;;;;5114291;28;20382;-72
2022/02/08 04:50:01;;;;;;;;;;;22.20;99.90;;;;;;5113856;28;19918;-71
2022/02/08 04:52:29;;;;;;;;;;;22.20;99.90;;;;;;5114316;28;19912;-70
2022/02/08 04:57:50;;;;;;;;;;;22.20;99.90;;;;;;5114284;28;20273;-68
2022/02/08 05:35:45;;;;;;;;;;;21.90;99.90;;;;;;5113223;28;20091;-70
2022/02/08 05:48:38;;;;;;;;;;;22.20;99.90;;;;;;5113196;28;19908;-70
2022/02/08 05:51:12;;;;;;;;;;;22.10;99.90;;;;;;5110979;28;20747;-70
2022/02/08 05:53:46;;;;;;;;;;;22.00;99.90;;;;;;5110842;28;19990;-70
2022/02/08 05:56:14;;;;;;;;;;;22.00;99.90;;;;;;5110846;28;19974;-71
2022/02/08 05:58:42;;;;;;;;;;;21.90;99.90;;;;;;5110703;28;19953;-71
2022/02/08 06:01:09;;;;;;;;;;;21.70;99.90;;;;;;5110773;28;20290;-71
2022/02/08 06:03:36;;;;;;;;;;;21.80;99.90;;;;;;5110922;28;19912;-70
2022/02/08 06:06:02;;;;;;;;;;;21.80;99.90;;;;;;5110114;28;19915;-72
2022/02/08 06:08:29;;;;;;;;;;;21.80;99.90;;;;;;5110810;28;19912;-72
2022/02/08 06:11:03;;;;;;;;;;;21.80;99.90;;;;;;5110642;28;19965;-72
2022/02/08 06:13:30;;;;;;;;;;;21.80;99.90;;;;;;5110752;28;19918;-72
2022/02/08 06:16:02;;;;;;;;;;;21.80;99.90;;;;;;5109730;28;19934;-72
2022/02/08 06:18:30;;;;;;;;;;;21.80;99.90;;;;;;5110221;28;19908;-72
2022/02/08 06:20:57;;;;;;;;;;;21.70;99.90;;;;;;5110440;28;19915;-71
2022/02/08 06:23:24;;;;;;;;;;;21.70;99.90;;;;;;5110651;28;20710;-72
2022/02/08 06:25:51;;;;;;;;;;;21.80;99.90;;;;;;5110096;28;19932;-72
2022/02/08 06:28:18;;;;;;;;;;;21.80;99.90;;;;;;5084185;28;19916;-73
2022/02/08 06:30:47;;;;;;;;;;;21.80;99.90;;;;;;5069859;28;20140;-72
2022/02/08 06:33:14;;;;;;;;;;;21.80;99.90;;;;;;5070039;28;19916;-72
2022/02/08 06:35:41;;;;;;;;;;;21.90;99.90;;;;;;5070011;28;20368;-73
2022/02/08 06:38:13;;;;;;;;;;;21.80;99.90;;;;;;5069503;28;19915;-72
2022/02/08 06:40:42;;;;;;;;;;;21.70;99.90;;;;;;5069401;28;19919;-72
2022/02/08 06:43:09;;;;;;;;;;;21.60;99.90;;;;;;5069874;28;20416;-72
2022/02/08 06:45:35;;;;;;;;;;;21.50;99.90;;;;;;5069488;28;19997;-73
2022/02/08 06:48:03;;;;;;;;;;;21.50;99.90;;;;;;5069431;28;19979;-72
2022/02/08 06:50:30;;;;;;;;;;;21.40;99.90;;;;;;5069733;28;19912;-71
2022/02/08 06:53:00;;;;;;;;;;;21.40;99.90;;;;;;5069381;28;19912;-71
2022/02/08 06:55:28;;;;;;;;;;;21.50;99.90;;;;;;5068617;28;19909;-72
2022/02/08 06:58:06;;;;;;;;;;;21.50;99.90;;;;;;5069497;28;19916;-72
2022/02/08 07:00:36;;;;;;;;;;;21.40;99.90;;;;;;5069541;28;19956;-72
2022/02/08 07:03:07;;;;;;;;;;;21.40;99.90;;;;;;5069586;28;19909;-71
2022/02/08 07:05:34;;;;;;;;;;;21.40;99.90;;;;;;5069429;28;19959;-72
2022/02/08 07:08:00;;;;;;;;;;;21.40;99.90;;;;;;5069298;28;20002;-72
2022/02/08 07:10:28;;;;;;;;;;;21.40;99.90;;;;;;5069646;28;20007;-71
2022/02/08 07:12:55;;;;;;;;;;;21.50;99.90;;;;;;5069432;28;20522;-72
2022/02/08 07:15:22;;;;;;;;;;;21.40;99.90;;;;;;5069655;28;19954;-72
2022/02/08 07:17:49;;;;;;;;;;;21.40;99.90;;;;;;5069369;28;20338;-71
2022/02/08 07:20:16;;;;;;;;;;;21.40;99.90;;;;;;5069003;28;19920;-72
2022/02/08 07:22:42;;;;;;;;;;;21.30;99.90;;;;;;5069477;28;19930;-72
2022/02/08 07:25:09;;;;;;;;;;;21.30;99.90;;;;;;5069258;28;19916;-71
2022/02/08 07:27:36;;;;;;;;;;;21.20;99.90;;;;;;5071818;28;19962;-71
2022/02/08 07:30:09;;;;;;;;;;;21.10;99.90;;;;;;5072522;28;19915;-71
2022/02/08 07:32:38;;;;;;;;;;;21.10;99.90;;;;;;5072529;28;19909;-72
2022/02/08 07:35:18;;;;;;;;;;;21.00;99.90;;;;;;5072645;28;19942;-72
2022/02/08 07:38:04;;;;;;;;;;;21.00;99.90;;;;;;5072996;28;19919;-71
2022/02/08 07:43:02;;;;;;;;;;;20.90;99.90;;;;;;5073007;28;19912;-74
2022/02/08 07:45:29;;;;;;;;;;;20.90;99.90;;;;;;5104828;28;20367;-74
2022/02/08 07:47:56;;;;;;;;;;;20.90;99.90;;;;;;5072649;28;19988;-73
2022/02/08 07:50:24;;;;;;;;;;;20.90;99.90;;;;;;5072697;28;19939;-72
2022/02/08 07:52:53;;;;;;;;;;;20.90;99.90;;;;;;5072569;28;20248;-72
2022/02/08 07:55:23;;;;;;;;;;;20.90;99.90;;;;;;5105143;28;19917;-71
2022/02/08 07:57:50;;;;;;;;;;;20.90;99.90;;;;;;5072357;28;19913;-72
2022/02/08 08:00:17;;;;;;;;;;;20.90;99.90;;;;;;5072278;28;19931;-71
2022/02/08 08:02:44;;;;;;;;;;;20.90;99.90;;;;;;5072427;28;19917;-71
2022/02/08 08:05:11;;;;;;;;;;;20.90;99.90;;;;;;5072930;28;19999;-72
2022/02/08 08:07:37;;;;;;;;;;;20.90;99.90;;;;;;5074214;28;19917;-72
2022/02/08 08:10:06;;;;;;;;;;;20.90;99.90;;;;;;5074221;28;19999;-73
2022/02/08 08:12:35;;;;;;;;;;;20.90;99.90;;;;;;5074605;28;19956;-72
2022/02/08 08:15:10;;;;;;;;;;;20.80;99.90;;;;;;5074575;28;20366;-72
2022/02/08 08:17:41;;;;;;;;;;;20.80;99.90;;;;;;5074598;28;20360;-72
2022/02/08 08:20:08;;;;;;;;;;;20.80;99.90;;;;;;5074117;28;19912;-72
2022/02/08 08:22:34;;;;;;;;;;;20.80;99.90;;;;;;5074319;28;19961;-71
2022/02/08 08:25:03;;;;;;;;;;;20.80;99.90;;;;;;5074186;28;19966;-73
2022/02/08 08:27:30;;;;;;;;;;;20.70;99.90;;;;;;5074052;28;19916;-72
2022/02/08 08:29:56;;;;;;;;;;;20.80;99.90;;;;;;5073180;28;19946;-72
2022/02/08 08:32:23;;;;;;;;;;;20.70;99.90;;;;;;5074044;28;20279;-72
2022/02/08 08:34:53;;;;;;;;;;;20.70;99.90;;;;;;5074232;28;19908;-72
2022/02/08 08:37:20;;;;;;;;;;;20.60;99.90;;;;;;5074150;28;19984;-74
2022/02/08 08:39:50;;;;;;;;;;;20.70;99.90;;;;;;5105685;28;20340;-72
2022/02/08 08:42:31;;;;;;;;;;;20.60;99.90;;;;;;5074020;28;19909;-71
2022/02/08 08:52:44;;;;;;;;;;;20.60;99.90;;;;;;5073640;28;19909;-71
2022/02/08 08:55:11;;;;;;;;;;;20.50;99.90;;;;;;5106135;28;19908;-72
2022/02/08 08:57:38;;;;;;;;;;;20.50;99.90;;;;;;5073671;28;19909;-72
2022/02/08 09:00:08;;;;;;;;;;;20.40;99.90;;;;;;5073150;28;19950;-71
2022/02/08 09:02:35;;;;;;;;;;;20.40;99.90;;;;;;5073445;28;19913;-72
2022/02/08 09:05:04;;;;;;;;;;;20.40;99.90;;;;;;5074929;28;19908;-71
2022/02/08 09:07:32;;;;;;;;;;;20.40;99.90;;;;;;5092853;28;19973;-72
2022/02/08 09:10:01;;;;;;;;;;;20.40;99.90;;;;;;5093405;28;20027;-72
2022/02/08 09:20:59;;;;;;;;;;;20.20;99.90;;;;;;5072741;28;19912;-72
2022/02/08 09:26:13;;;;;;;;;;;20.20;99.90;;;;;;5072552;28;20022;-72
2022/02/08 09:28:43;;;;;;;;;;;20.20;99.90;;;;;;5073001;28;19917;-72
2022/02/08 09:31:14;;;;;;;;;;;20.20;99.90;;;;;;5072889;28;19909;-71
2022/02/08 09:33:41;;;;;;;;;;;20.20;99.90;;;;;;5072787;28;19970;-72
2022/02/08 09:36:08;;;;;;;;;;;20.20;99.90;;;;;;5072157;28;19965;-72
2022/02/08 09:38:35;;;;;;;;;;;20.20;99.90;;;;;;5072960;28;19912;-73
2022/02/08 09:41:03;;;;;;;;;;;20.20;99.90;;;;;;5072877;28;19940;-73
2022/02/08 09:43:30;;;;;;;;;;;20.20;99.90;;;;;;5073053;28;19978;-73
2022/02/08 09:46:00;;;;;;;;;;;20.20;99.90;;;;;;5072569;28;19951;-73
2022/02/08 09:48:37;;;;;;;;;;;20.20;99.90;;;;;;5072831;28;19920;-73
2022/02/08 09:51:04;;;;;;;;;;;20.10;99.90;;;;;;5071371;28;19931;-71
2022/02/08 09:53:32;;;;;;;;;;;20.20;99.90;;;;;;5072812;28;19915;-72
2022/02/08 09:56:00;;;;;;;;;;;20.10;99.90;;;;;;5072496;28;19970;-73
2022/02/08 09:58:27;;;;;;;;;;;20.10;99.90;;;;;;5072302;28;19909;-73
2022/02/08 10:01:11;;;;;;;;;;;20.20;99.90;;;;;;5072617;28;19954;-73
2022/02/08 10:03:51;;;;;;;;;;;20.20;99.90;;;;;;5072475;28;19955;-73
2022/02/08 10:06:18;;;;;;;;;;;20.20;99.90;;;;;;5071721;28;20370;-72
2022/02/08 10:08:44;;;;;;;;;;;20.20;99.90;;;;;;5072446;28;19947;-72
2022/02/08 10:11:24;;;;;;;;;;;20.20;99.90;;;;;;5072594;28;20427;-73
2022/02/08 10:14:18;;;;;;;;;;;20.20;99.90;;;;;;5072415;28;19908;-72
2022/02/08 10:22:35;;;;;;;;;;;20.30;99.90;;;;;;5072570;28;20248;-73
2022/02/08 10:25:03;;;;;;;;;;;20.30;99.90;;;;;;5072341;28;19978;-73
2022/02/08 10:27:37;;;;;;;;;;;20.20;99.90;;;;;;5072143;28;20386;-73
2022/02/08 10:30:57;;;;;;;;;;;20.20;99.90;;;;;;5072186;28;19915;-73
2022/02/08 10:38:58;;;;;;;;;;;20.20;99.90;;;;;;5072600;28;19915;-72
2022/02/08 10:41:25;;;;;;;;;;;20.20;99.90;;;;;;5072216;28;19912;-72
2022/02/08 10:43:56;;;;;;;;;;;20.10;99.90;;;;;;5071963;28;19915;-70
2022/02/08 10:46:23;;;;;;;;;;;20.10;99.90;;;;;;5071973;28;20357;-71
2022/02/08 10:49:09;;;;;;;;;;;20.10;99.90;;;;;;5072006;28;19909;-70
2022/02/08 10:51:56;;;;;;;;;;;20.10;99.90;;;;;;5068319;28;20069;-70
2022/02/08 10:54:28;;;;;;;;;;;20.10;99.90;;;;;;5072203;28;19916;-70
2022/02/08 10:57:02;;;;;;;;;;;20.00;99.90;;;;;;5072066;28;19916;-70
2022/02/08 10:59:37;;;;;;;;;;;20.00;99.90;;;;;;5071998;28;19921;-72
2022/02/08 11:02:14;;;;;;;;;;;20.00;99.90;;;;;;5073840;28;19909;-71
2022/02/08 11:05:01;;;;;;;;;;;19.90;99.90;;;;;;5075464;28;19912;-71
2022/02/08 11:07:56;;;;;;;;;;;19.90;99.90;;;;;;5075912;28;19924;-70
2022/02/08 11:10:45;;;;;;;;;;;19.90;99.90;;;;;;5075569;28;20007;-71
2022/02/08 11:15:55;;;;;;;;;;;19.80;99.90;;;;;;5076083;28;20408;-72
2022/02/08 11:21:08;;;;;;;;;;;19.80;99.90;;;;;;5075084;28;19912;-71
2022/02/08 11:23:47;;;;;;;;;;;19.90;99.90;;;;;;5075211;28;20273;-71
2022/02/08 11:26:38;;;;;;;;;;;19.80;99.90;;;;;;5075281;28;19920;-72
2022/02/08 11:29:14;;;;;;;;;;;19.80;99.90;;;;;;5074169;28;20298;-72
2022/02/08 11:31:47;;;;;;;;;;;19.80;99.90;;;;;;5075265;28;19917;-72
2022/02/08 11:39:06;;;;;;;;;;;19.80;99.90;;;;;;5075193;28;19916;-71
2022/02/08 11:40:20;;;;;;;;;;;19.80;99.90;;;;;;5075326;28;19919;-71
2022/02/08 11:43:17;;;;;;;;;;;19.70;99.90;;;;;;5074906;28;19909;-72
2022/02/08 11:45:55;;;;;;;;;;;19.70;99.90;;;;;;5075085;28;20283;-72
2022/02/08 11:54:18;;;;;;;;;;;19.70;99.90;;;;;;5074638;28;19939;-72
2022/02/08 12:07:38;;;;;;;;;;;19.60;99.90;;;;;;5074264;28;20454;-72
2022/02/08 12:10:18;;;;;;;;;;;19.60;99.90;;;;;;5074328;28;20381;-73
2022/02/08 12:13:06;;;;;;;;;;;19.60;99.90;;;;;;5073872;28;20302;-72
2022/02/08 12:35:21;;;;;;;;;;;19.60;99.90;;;;;;5074636;28;19960;-72
2022/02/08 12:54:26;;;;;;;;;;;19.50;99.90;;;;;;5073775;28;19908;-72
2022/02/08 12:57:20;;;;;;;;;;;19.40;99.90;;;;;;5073470;28;19908;-72
2022/02/08 14:06:50;;;;;;;;;;;19.00;99.90;;;;;;5072365;28;20015;-72
2022/02/08 14:09:36;;;;;;;;;;;19.00;99.90;;;;;;5072622;28;19916;-72
2022/02/08 14:14:35;;;;;;;;;;;19.10;99.90;;;;;;5072416;28;19909;-71
2022/02/08 14:20:41;;;;;;;;;;;19.10;99.90;;;;;;5050048;28;20008;-72
2022/02/08 14:23:28;;;;;;;;;;;19.10;99.90;;;;;;5050194;28;19909;-71
2022/02/08 14:37:03;;;;;;;;;;;19.00;99.90;;;;;;5074061;28;19915;-72
2022/02/08 15:09:48;;;;;;;;;;;19.00;99.90;;;;;;5075816;28;19909;-72
2022/02/08 15:12:18;;;;;;;;;;;19.00;99.90;;;;;;5075776;28;19909;-72
2022/02/08 15:15:01;;;;;;;;;;;19.00;99.90;;;;;;5075801;28;20054;-72
2022/02/08 15:17:28;;;;;;;;;;;19.00;99.90;;;;;;5075753;28;19970;-72
2022/02/08 15:19:58;;;;;;;;;;;19.00;99.90;;;;;;5075606;28;19921;-72
2022/02/08 15:22:24;;;;;;;;;;;19.00;99.90;;;;;;5075613;28;20450;-72
2022/02/08 15:24:51;;;;;;;;;;;19.00;99.90;;;;;;5075549;28;19936;-71
2022/02/08 15:27:20;;;;;;;;;;;19.10;99.90;;;;;;5075310;28;19930;-72
2022/02/08 15:29:53;;;;;;;;;;;19.00;99.90;;;;;;5075227;28;20409;-71
2022/02/08 15:32:20;;;;;;;;;;;19.00;99.90;;;;;;5075413;28;19909;-72
2022/02/08 15:34:48;;;;;;;;;;;19.00;99.90;;;;;;5075291;28;20007;-72
2022/02/08 15:37:15;;;;;;;;;;;19.00;99.90;;;;;;5075386;28;19913;-72
2022/02/08 15:39:44;;;;;;;;;;;19.00;99.90;;;;;;5075300;28;20484;-71
2022/02/08 15:42:10;;;;;;;;;;;19.10;99.90;;;;;;5075043;28;19962;-72
2022/02/08 15:44:40;;;;;;;;;;;19.10;99.90;;;;;;5075182;28;20000;-72
2022/02/08 15:47:11;;;;;;;;;;;19.10;99.90;;;;;;5074790;28;19913;-72
2022/02/08 15:49:43;;;;;;;;;;;19.10;99.90;;;;;;5074184;28;19939;-72
2022/02/08 15:52:22;;;;;;;;;;;19.10;99.90;;;;;;5074808;28;20383;-71
2022/02/08 15:54:52;;;;;;;;;;;19.10;99.90;;;;;;5075094;28;20363;-72
2022/02/08 16:06:19;;;;;;;;;;;19.00;99.90;;;;;;5053202;28;20011;-72
2022/02/08 16:08:36;;;;;;;;;;;18.90;99.90;;;;;;5066903;28;19991;-72
2022/02/08 16:11:35;;;;;;;;;;;18.90;99.90;;;;;;5074807;28;19943;-71
2022/02/08 16:14:05;;;;;;;;;;;18.90;99.90;;;;;;5074311;28;19909;-72
2022/02/08 16:27:31;;;;;;;;;;;18.80;99.90;;;;;;5074355;28;19912;-72
2022/02/08 16:30:03;;;;;;;;;;;18.80;99.90;;;;;;5068578;28;19912;-71
2022/02/08 16:32:38;;;;;;;;;;;18.80;99.90;;;;;;5074058;28;20362;-72
2022/02/08 16:46:19;;;;;;;;;;;18.70;99.90;;;;;;5073546;28;20317;-73
2022/02/08 16:59:21;;;;;;;;;;;18.60;99.90;;;;;;5073424;28;19917;-72
2022/02/08 17:01:48;;;;;;;;;;;18.60;99.90;;;;;;5073746;28;19924;-71
2022/02/08 17:04:14;;;;;;;;;;;18.50;99.90;;;;;;5073705;28;19908;-72
2022/02/08 17:06:41;;;;;;;;;;;18.50;99.90;;;;;;5073433;28;19920;-71
2022/02/08 17:09:15;;;;;;;;;;;18.50;99.90;;;;;;5073586;28;20355;-72
2022/02/08 17:11:45;;;;;;;;;;;18.50;99.90;;;;;;5073593;28;19918;-72
2022/02/08 17:47:20;;;;;;;;;;;18.60;99.90;;;;;;5072624;28;19935;-72
2022/02/08 17:49:24;;;;;;;;;;;18.60;99.90;;;;;;5071730;28;19909;-72
2022/02/08 17:51:51;;;;;;;;;;;18.60;99.90;;;;;;5072651;28;19995;-72
2022/02/08 17:54:18;;;;;;;;;;;18.60;99.90;;;;;;5072830;28;20371;-72
2022/02/08 17:56:45;;;;;;;;;;;18.60;99.90;;;;;;5072774;28;19981;-72
2022/02/08 17:59:12;;;;;;;;;;;18.60;99.90;;;;;;5072590;28;19921;-72
2022/02/08 18:01:38;;;;;;;;;;;18.60;99.90;;;;;;5072501;28;19993;-72
2022/02/08 18:04:06;;;;;;;;;;;18.60;99.90;;;;;;5072449;28;19908;-72
2022/02/08 18:06:32;;;;;;;;;;;18.60;99.90;;;;;;5072535;28;19912;-72
2022/02/08 18:09:01;;;;;;;;;;;18.50;99.90;;;;;;5072732;28;19913;-72
2022/02/08 18:11:30;;;;;;;;;;;18.50;99.90;;;;;;5072109;28;19908;-73
2022/02/08 18:13:56;;;;;;;;;;;18.50;99.90;;;;;;5072542;28;20416;-72
2022/02/08 18:16:24;;;;;;;;;;;18.40;99.90;;;;;;5072377;28;19952;-72
2022/02/08 18:18:50;;;;;;;;;;;18.40;99.90;;;;;;5072588;28;20011;-71
2022/02/08 18:21:24;;;;;;;;;;;18.30;99.90;;;;;;5072553;28;19908;-72
2022/02/08 19:07:38;;;;;;;;;;;18.10;99.90;;;;;;5071897;28;20268;-72
2022/02/08 19:10:58;;;;;;;;;;;18.10;99.90;;;;;;5071822;28;20015;-71
2022/02/08 19:15:48;;;;;;;;;;;18.10;99.90;;;;;;5071914;28;20278;-72
2022/02/08 19:23:33;;;;;;;;;;;18.30;99.90;;;;;;5074483;28;19943;-72
2022/02/08 19:26:00;;;;;;;;;;;18.30;99.90;;;;;;5075431;28;20283;-71
2022/02/08 19:28:27;;;;;;;;;;;18.30;99.90;;;;;;5075522;28;19924;-71
2022/02/08 19:30:53;;;;;;;;;;;18.20;99.90;;;;;;5075196;28;19916;-71
2022/02/08 19:33:25;;;;;;;;;;;18.20;99.90;;;;;;5075220;28;19931;-71
2022/02/08 19:35:55;;;;;;;;;;;18.10;99.90;;;;;;5075250;28;19909;-72
2022/02/08 19:38:25;;;;;;;;;;;18.00;99.90;;;;;;5075309;28;19908;-71
2022/02/08 19:40:52;;;;;;;;;;;18.00;99.90;;;;;;5075328;28;20003;-71
2022/02/08 19:43:19;;;;;;;;;;;18.00;99.90;;;;;;5075253;28;19909;-71
2022/02/08 19:45:46;;;;;;;;;;;17.90;99.90;;;;;;5075003;28;19919;-71
2022/02/08 19:48:14;;;;;;;;;;;17.90;99.90;;;;;;5075023;28;19920;-71
2022/02/08 19:50:42;;;;;;;;;;;17.80;99.90;;;;;;5074954;28;19908;-71
2022/02/08 19:53:09;;;;;;;;;;;17.80;99.90;;;;;;5075023;28;19915;-71
2022/02/08 19:58:10;;;;;;;;;;;17.80;99.90;;;;;;5074781;28;20279;-72
2022/02/08 20:00:38;;;;;;;;;;;17.90;99.90;;;;;;5074708;28;19999;-72
2022/02/08 20:03:07;;;;;;;;;;;17.90;99.90;;;;;;5075098;28;20004;-71
2022/02/08 20:05:34;;;;;;;;;;;18.00;99.90;;;;;;5074837;28;19909;-71
2022/02/08 20:08:01;;;;;;;;;;;18.00;99.90;;;;;;5074498;28;19916;-71
2022/02/08 20:10:28;;;;;;;;;;;18.00;99.90;;;;;;5074721;28;19909;-71
2022/02/08 20:12:55;;;;;;;;;;;18.00;99.90;;;;;;5074583;28;19908;-72
2022/02/08 20:15:22;;;;;;;;;;;18.10;99.90;;;;;;5074627;28;19924;-72
2022/02/08 20:17:51;;;;;;;;;;;18.10;99.90;;;;;;5074573;28;19948;-72
2022/02/08 20:20:18;;;;;;;;;;;18.10;99.90;;;;;;5074552;28;19995;-72
2022/02/08 20:22:50;;;;;;;;;;;18.10;99.90;;;;;;5074571;28;19913;-72
2022/02/08 20:25:19;;;;;;;;;;;18.20;99.90;;;;;;5074488;28;20315;-72
2022/02/08 20:27:49;;;;;;;;;;;18.20;99.90;;;;;;5074279;28;19920;-71
2022/02/08 20:30:20;;;;;;;;;;;18.30;99.90;;;;;;5074210;28;19917;-72
2022/02/08 20:32:46;;;;;;;;;;;18.30;99.90;;;;;;5074475;28;19912;-70
2022/02/08 20:35:13;;;;;;;;;;;18.40;99.90;;;;;;5073479;28;19938;-71
2022/02/08 20:37:41;;;;;;;;;;;18.40;99.90;;;;;;5074118;28;19983;-72
2022/02/08 20:40:09;;;;;;;;;;;18.40;99.90;;;;;;5073860;28;19916;-72
2022/02/08 20:42:35;;;;;;;;;;;18.50;99.90;;;;;;5074124;28;19951;-72
2022/02/08 20:45:02;;;;;;;;;;;18.60;99.90;;;;;;5073913;28;19908;-72
2022/02/08 20:47:29;;;;;;;;;;;18.60;99.90;;;;;;5074023;28;20010;-72
2022/02/08 20:50:10;;;;;;;;;;;18.70;99.90;;;;;;5074071;28;19981;-72
2022/02/08 20:52:48;;;;;;;;;;;18.80;99.90;;;;;;5073920;28;19909;-72
2022/02/08 20:55:18;;;;;;;;;;;18.80;99.90;;;;;;5073945;28;19924;-72
2022/02/08 20:57:52;;;;;;;;;;;18.80;99.90;;;;;;5073777;28;19909;-72
2022/02/08 21:00:20;;;;;;;;;;;18.90;99.90;;;;;;5073320;28;19920;-72
2022/02/08 21:03:40;;;;;;;;;;;19.00;99.90;;;;;;5073402;28;19912;-72
2022/02/08 21:05:37;;;;;;;;;;;19.00;99.90;;;;;;5065317;28;19909;-72
2022/02/08 21:08:04;;;;;;;;;;;19.10;99.90;;;;;;5073334;28;20011;-72
2022/02/08 21:10:34;;;;;;;;;;;19.20;99.90;;;;;;5073563;28;19909;-72
2022/02/08 21:13:11;;;;;;;;;;;19.20;99.90;;;;;;5073465;28;20391;-72
2022/02/08 21:15:38;;;;;;;;;;;19.30;99.90;;;;;;5072882;28;19912;-72
2022/02/08 21:18:05;;;;;;;;;;;19.40;99.90;;;;;;5073180;28;19999;-72
2022/02/08 21:20:31;;;;;;;;;;;19.50;99.90;;;;;;5073386;28;19932;-72
2022/02/08 21:22:58;;;;;;;;;;;19.50;99.90;;;;;;5073300;28;19908;-72
2022/02/08 21:25:24;;;;;;;;;;;19.50;99.90;;;;;;5073173;28;19959;-72
2022/02/08 21:27:58;;;;;;;;;;;19.60;99.90;;;;;;5072670;28;19917;-73
2022/02/08 21:31:19;;;;;;;;;;;19.70;99.90;;;;;;5072734;28;19916;-72
2022/02/08 21:43:19;;;;;;;;;;;19.70;99.90;;;;;;5071738;28;19916;-73
2022/02/08 21:49:48;;;;;;;;;;;20.20;99.90;;;;;;5072731;28;19914;-72
2022/02/08 21:54:36;;;;;;;;;;;20.30;99.90;;;;;;5072335;28;19916;-72
2022/02/08 21:57:07;;;;;;;;;;;20.40;99.90;;;;;;5073912;28;19916;-72
2022/02/08 21:59:39;;;;;;;;;;;20.40;99.90;;;;;;5071497;28;19965;-71
2022/02/08 22:02:06;;;;;;;;;;;20.50;99.90;;;;;;5072219;28;19912;-72
2022/02/08 22:04:33;;;;;;;;;;;20.60;99.90;;;;;;5072460;28;20015;-74
2022/02/08 22:07:03;;;;;;;;;;;20.60;99.90;;;;;;5072192;28;19923;-72
2022/02/08 22:09:30;;;;;;;;;;;20.70;99.90;;;;;;5072135;28;19908;-72
2022/02/08 22:18:03;;;;;;;;;;;20.90;99.90;;;;;;5073258;28;19970;-70
2022/02/08 22:23:10;;;;;;;;;;;21.00;99.90;;;;;;5072743;28;19915;-72
2022/02/08 22:26:04;;;;;;;;;;;21.00;99.90;;;;;;5071994;28;20279;-72
2022/02/08 22:28:57;;;;;;;;;;;21.10;99.90;;;;;;5071211;28;20294;-72